Byron, CA (94514)

9:13 PM PST on December 08, 2016 (GMT -0800)
Lighthouse Place | | Change Station

Elev 16 ft 37.90 °N, 121.62 °W | Updated 13 minutes ago

Overcast
Overcast
54.7 °F
Feels Like 54.7 °F
N
4.3
Wind Variable Wind from North
Gusts 9.9 mph

Today
High -- | Low -- °F
--% Chance of Precip.
Yesterday
High -- | Low -- °F
Precip. -- in
Pressure 30.17 in
Visibility 4.0 miles
Clouds Few 900 ft
Overcast 2300 ft
Dew Point 54 °F
Humidity 98%
Rainfall 0.50 in
Snow Depth Not available.
7:10 AM 4:47 PM
Waxing Gibbous, 70% visible
METAR KLVK 090453Z 07003KT 4SM BR FEW009 OVC023 13/12 A3017 RMK AO2 RAB0354E52 SLP216 P0002 T01330122
Pressure 30.17 in
Visibility 4.0 miles
Clouds Few 900 ft
Overcast 2300 ft
Dew Point 54 °F
Humidity 98%
Rainfall 0.50 in
Snow Depth Not available.
7:10 AM 4:47 PM
Waxing Gibbous, 70% visible
METAR KLVK 090453Z 07003KT 4SM BR FEW009 OVC023 13/12 A3017 RMK AO2 RAB0354E52 SLP216 P0002 T01330122

10-Day Weather Forecast

Almanac

Astronomy

Dec. 08, 2016 Rise Set
Actual Time
Civil Twilight
Nautical Twilight
Astronomical Twilight
Moon
Length of Visible Light
Length of Day
Tomorrow will be .
, % of the Moon is Illuminated

Today's Extremes

State Highs State Lows

Community

WunderPhotos

Upload Photos

1,956,370 photos uploaded!

WunderBlog® & News

Nearby

Air Quality

  Air Quality AQ Index Pollutant
Not available.

Snow Depth

Station Depth Elevation

Earthquake Activity

City Distance Mag. Time & Date
Minimum magnitude displayed is 2.5.

Coastal Water Temperatures

Place Temperature

Stations

Nearby Weather Stations

Station Location Temp. Windchill Dew Point Humidity Wind Precip. Elev Updated Type
                   

Watches & Warnings

There are currently no watches in effect.